createdAt,value
2018-01-24T00:00:29.440Z,8.80
2018-01-24T00:03:31.029Z,8.90
2018-01-24T00:06:32.519Z,8.90
2018-01-24T00:09:34.005Z,9.00
2018-01-24T00:12:35.478Z,8.80
2018-01-24T00:15:37.710Z,8.80
2018-01-24T00:18:39.161Z,8.90
2018-01-24T00:21:40.646Z,8.80
2018-01-24T00:24:42.170Z,8.80
2018-01-24T00:27:43.645Z,8.80
2018-01-24T00:30:45.128Z,8.70
2018-01-24T00:33:47.351Z,8.90
2018-01-24T00:36:48.851Z,8.90
2018-01-24T00:39:51.045Z,9.00
2018-01-24T00:42:52.548Z,9.00
2018-01-24T00:45:54.004Z,9.00
2018-01-24T00:48:55.533Z,9.10
2018-01-24T00:51:57.010Z,9.10
2018-01-24T00:54:58.431Z,9.10
2018-01-24T00:57:59.974Z,9.10
2018-01-24T01:01:01.463Z,9.10
2018-01-24T01:04:02.989Z,9.30
2018-01-24T01:07:04.476Z,9.30
2018-01-24T01:10:05.949Z,9.40
2018-01-24T01:13:08.150Z,9.40
2018-01-24T01:16:09.702Z,9.40
2018-01-24T01:19:11.153Z,9.50
2018-01-24T01:22:12.631Z,9.50
2018-01-24T01:25:14.148Z,9.50
2018-01-24T01:28:15.571Z,9.50
2018-01-24T01:31:17.792Z,9.60
2018-01-24T01:34:19.304Z,9.60
2018-01-24T01:37:20.710Z,9.60
2018-01-24T01:40:22.176Z,9.50
2018-01-24T01:43:23.700Z,9.60
2018-01-24T01:46:25.209Z,9.70
2018-01-24T01:49:26.627Z,9.70
2018-01-24T01:52:28.139Z,9.70
2018-01-24T01:55:30.373Z,9.70
2018-01-24T01:58:31.885Z,9.70
2018-01-24T02:01:33.381Z,9.60
2018-01-24T02:04:34.895Z,9.60
2018-01-24T02:07:36.421Z,9.60
2018-01-24T02:10:38.621Z,9.70
2018-01-24T02:13:40.138Z,9.50
2018-01-24T02:16:41.649Z,9.70
2018-01-24T02:19:43.073Z,9.60
2018-01-24T02:22:44.561Z,9.60
2018-01-24T02:25:46.054Z,9.70
2018-01-24T02:28:48.233Z,9.70
2018-01-24T02:31:49.737Z,9.70
2018-01-24T02:34:51.205Z,9.70
2018-01-24T02:37:52.760Z,9.70
2018-01-24T02:40:54.243Z,9.80
2018-01-24T02:43:55.729Z,9.70
2018-01-24T02:46:57.981Z,9.70
2018-01-24T02:49:59.479Z,9.70
2018-01-24T02:53:00.980Z,9.70
2018-01-24T02:56:02.450Z,9.60
2018-01-24T02:59:03.857Z,9.70
2018-01-24T03:02:05.417Z,9.80
2018-01-24T03:05:06.902Z,9.70
2018-01-24T03:08:08.412Z,10.00
2018-01-24T03:11:09.928Z,9.80
2018-01-24T03:14:11.398Z,9.80
2018-01-24T03:17:12.926Z,9.90
2018-01-24T03:20:14.390Z,9.80
2018-01-24T03:23:15.896Z,9.80
2018-01-24T03:26:17.426Z,9.80
2018-01-24T03:29:18.898Z,9.70
2018-01-24T03:32:20.358Z,9.80
2018-01-24T03:35:22.531Z,9.80
2018-01-24T03:38:24.771Z,9.80
2018-01-24T03:41:26.266Z,9.90
2018-01-24T03:44:27.767Z,9.80
2018-01-24T03:47:29.264Z,10.00
2018-01-24T03:50:31.503Z,9.80
2018-01-24T03:53:33.010Z,9.80
2018-01-24T03:56:34.496Z,9.80
2018-01-24T03:59:35.965Z,9.80
2018-01-24T04:02:37.442Z,9.60
2018-01-24T04:05:38.905Z,9.80
2018-01-24T04:08:41.111Z,9.90
2018-01-24T04:11:42.557Z,9.70
2018-01-24T04:14:44.036Z,10.00
2018-01-24T04:17:45.632Z,9.90
2018-01-24T04:20:47.078Z,9.80
2018-01-24T04:23:48.593Z,9.80
2018-01-24T04:26:50.069Z,10.10
2018-01-24T04:29:51.510Z,9.90
2018-01-24T04:32:52.967Z,9.90
2018-01-24T04:35:54.426Z,9.80
2018-01-24T04:38:55.919Z,9.90
2018-01-24T04:41:57.372Z,9.90
2018-01-24T04:44:59.562Z,10.00
2018-01-24T04:48:01.015Z,10.10
2018-01-24T04:51:02.522Z,10.10
2018-01-24T04:54:04.031Z,10.00
2018-01-24T04:57:05.521Z,9.90
2018-01-24T05:00:06.975Z,10.00
2018-01-24T05:03:08.454Z,10.00
2018-01-24T05:06:10.690Z,10.10
2018-01-24T05:09:12.212Z,10.10
2018-01-24T05:12:13.767Z,9.90
2018-01-24T05:15:15.368Z,10.10
2018-01-24T05:18:17.609Z,10.10
2018-01-24T05:21:19.935Z,10.10
2018-01-24T05:24:22.152Z,10.20
2018-01-24T05:27:23.673Z,10.00
2018-01-24T05:30:25.172Z,10.00
2018-01-24T05:33:26.635Z,10.20
2018-01-24T05:36:28.145Z,10.20
2018-01-24T05:39:29.610Z,10.20
2018-01-24T05:42:31.087Z,10.00
2018-01-24T05:45:32.580Z,10.30
2018-01-24T05:48:34.815Z,10.30
2018-01-24T05:51:36.353Z,10.20
2018-01-24T05:54:37.838Z,10.30
2018-01-24T05:57:39.368Z,10.30
2018-01-24T06:00:41.144Z,10.30
2018-01-24T06:03:42.632Z,10.30
2018-01-24T06:06:44.384Z,10.40
2018-01-24T06:09:46.833Z,10.30
2018-01-24T06:12:48.434Z,10.40
2018-01-24T06:15:49.897Z,10.30
2018-01-24T06:18:51.414Z,10.30
2018-01-24T06:21:53.645Z,10.40
2018-01-24T06:24:55.134Z,10.30
2018-01-24T06:27:56.636Z,10.50
2018-01-24T06:30:58.442Z,10.40
2018-01-24T06:34:01.050Z,10.50
2018-01-24T06:37:02.518Z,10.40
2018-01-24T06:40:04.286Z,10.60
2018-01-24T06:43:05.773Z,10.50
2018-01-24T06:46:07.264Z,10.50
2018-01-24T06:49:09.640Z,10.50
2018-01-24T06:52:11.986Z,10.60
2018-01-24T06:55:13.560Z,10.50
2018-01-24T06:58:15.750Z,10.50
2018-01-24T07:01:17.464Z,10.50
2018-01-24T07:04:19.118Z,10.50
2018-01-24T07:07:20.590Z,10.50
2018-01-24T07:10:22.712Z,10.50
2018-01-24T07:13:42.709Z,10.60
2018-01-24T07:16:44.098Z,10.60
2018-01-24T07:19:45.492Z,10.60
2018-01-24T07:22:46.891Z,10.60
2018-01-24T07:25:48.298Z,10.50
2018-01-24T07:28:49.682Z,10.60
2018-01-24T07:31:51.077Z,10.40
2018-01-24T07:34:52.403Z,10.60
2018-01-24T07:37:53.881Z,10.70
2018-01-24T07:40:55.279Z,10.70
2018-01-24T07:43:56.633Z,10.50
2018-01-24T07:46:58.023Z,10.80
2018-01-24T07:50:00.294Z,10.70
2018-01-24T07:53:02.465Z,10.70
2018-01-24T07:56:04.594Z,10.70
2018-01-24T07:59:05.995Z,10.90
2018-01-24T08:02:07.307Z,10.60
2018-01-24T08:05:08.717Z,10.80
2018-01-24T08:08:10.099Z,10.90
2018-01-24T08:11:11.420Z,10.90
2018-01-24T08:14:12.765Z,10.80
2018-01-24T08:17:14.135Z,10.90
2018-01-24T08:20:15.551Z,11.00
2018-01-24T08:23:16.944Z,10.90
2018-01-24T08:26:18.406Z,10.90
2018-01-24T08:29:19.857Z,10.90
2018-01-24T08:32:21.380Z,11.00
2018-01-24T08:35:22.854Z,11.10
2018-01-24T08:38:24.540Z,10.90
2018-01-24T08:41:26.075Z,11.00
2018-01-24T08:44:27.604Z,11.10
2018-01-24T08:47:29.081Z,11.00
2018-01-24T08:50:30.534Z,11.00
2018-01-24T08:53:32.039Z,11.00
2018-01-24T08:56:33.506Z,11.10
2018-01-24T08:59:35.919Z,11.10
2018-01-24T09:02:37.394Z,11.10
2018-01-24T09:05:38.829Z,11.10
2018-01-24T09:08:40.265Z,11.30
2018-01-24T09:11:41.664Z,11.20
2018-01-24T09:14:43.086Z,11.20
2018-01-24T09:17:44.531Z,11.20
2018-01-24T09:20:46.715Z,11.30
2018-01-24T09:23:48.171Z,11.30
2018-01-24T09:26:49.854Z,11.20
2018-01-24T09:29:51.606Z,11.30
2018-01-24T09:32:53.337Z,11.40
2018-01-24T09:35:54.810Z,11.40
2018-01-24T09:38:56.367Z,11.40
2018-01-24T09:41:57.809Z,11.40
2018-01-24T09:44:59.255Z,11.40
2018-01-24T09:48:00.887Z,11.40
2018-01-24T09:51:02.380Z,11.40
2018-01-24T09:54:03.901Z,11.40
2018-01-24T09:57:05.443Z,11.40
2018-01-24T10:00:06.976Z,11.40
2018-01-24T10:03:09.165Z,11.50
2018-01-24T10:06:10.795Z,11.50
2018-01-24T10:09:13.209Z,11.60
2018-01-24T10:12:14.835Z,11.60
2018-01-24T10:15:16.245Z,11.70
2018-01-24T10:18:18.429Z,11.70
2018-01-24T10:21:19.843Z,11.70
2018-01-24T10:24:21.279Z,11.70
2018-01-24T10:27:22.756Z,11.80
2018-01-24T10:30:24.182Z,11.80
2018-01-24T10:33:25.620Z,11.80
2018-01-24T10:36:27.866Z,11.90
2018-01-24T10:39:29.328Z,11.90
2018-01-24T10:42:31.564Z,12.00
2018-01-24T10:45:33.066Z,11.80
2018-01-24T10:48:34.484Z,11.90
2018-01-24T10:51:35.971Z,11.90
2018-01-24T10:54:38.185Z,11.90
2018-01-24T10:57:39.601Z,11.80
2018-01-24T11:00:41.844Z,12.00
2018-01-24T11:03:43.335Z,11.90
2018-01-24T11:06:44.694Z,11.90
2018-01-24T11:09:46.150Z,12.00
2018-01-24T11:12:47.804Z,11.90
2018-01-24T11:15:49.267Z,12.00
2018-01-24T11:18:50.703Z,12.00
2018-01-24T11:21:52.147Z,11.80
2018-01-24T11:24:54.364Z,12.10
2018-01-24T11:27:55.798Z,12.10
2018-01-24T11:30:57.224Z,12.00
2018-01-24T11:33:58.822Z,12.20
2018-01-24T11:37:00.474Z,12.10
2018-01-24T11:40:01.974Z,12.20
2018-01-24T11:43:03.330Z,12.20
2018-01-24T11:46:05.587Z,12.20
2018-01-24T11:49:07.180Z,12.20
2018-01-24T11:52:08.591Z,12.20
2018-01-24T11:55:10.052Z,12.30
2018-01-24T11:58:11.738Z,12.30
2018-01-24T12:01:13.152Z,12.30
2018-01-24T12:04:14.591Z,12.30
2018-01-24T12:07:16.005Z,12.40
2018-01-24T12:10:17.513Z,12.40
2018-01-24T12:13:18.868Z,12.40
2018-01-24T12:16:20.377Z,12.50
2018-01-24T12:19:21.795Z,12.60
2018-01-24T12:22:24.038Z,12.60
2018-01-24T12:25:25.430Z,12.70
2018-01-24T12:28:26.908Z,12.70
2018-01-24T12:31:28.365Z,12.70
2018-01-24T12:34:29.826Z,12.70
2018-01-24T12:37:31.255Z,12.90
2018-01-24T12:40:32.650Z,12.80
2018-01-24T12:43:34.097Z,12.80
2018-01-24T12:46:35.649Z,12.80
2018-01-24T12:49:37.070Z,12.80
2018-01-24T12:52:38.577Z,12.80
2018-01-24T12:55:40.103Z,12.70
2018-01-24T12:58:41.488Z,12.80
2018-01-24T13:01:43.713Z,12.80
2018-01-24T13:04:45.103Z,12.60
2018-01-24T13:07:47.267Z,12.70
2018-01-24T13:10:48.739Z,12.70
2018-01-24T13:13:50.934Z,12.80
2018-01-24T13:16:52.338Z,12.80
2018-01-24T13:19:53.744Z,12.90
2018-01-24T13:22:55.122Z,12.70
2018-01-24T13:25:56.467Z,12.80
2018-01-24T13:28:57.870Z,12.70
2018-01-24T13:32:00.037Z,12.70
2018-01-24T13:35:02.152Z,12.70
2018-01-24T13:38:10.458Z,12.70
2018-01-24T13:41:11.835Z,12.70
2018-01-24T13:44:13.221Z,12.70
2018-01-24T13:47:15.373Z,12.70
2018-01-24T13:50:16.766Z,12.50
2018-01-24T13:53:18.188Z,12.70
2018-01-24T13:56:20.320Z,12.70
2018-01-24T13:59:21.638Z,12.70
2018-01-24T14:02:23.034Z,12.50
2018-01-24T14:05:24.391Z,12.50
2018-01-24T14:08:25.762Z,12.80
2018-01-24T14:11:27.897Z,12.70
2018-01-24T14:14:29.266Z,12.70
2018-01-24T14:17:30.655Z,12.70
2018-01-24T14:20:32.029Z,12.80
2018-01-24T14:23:33.476Z,12.50
2018-01-24T14:26:34.854Z,12.70
2018-01-24T14:29:36.240Z,12.90
2018-01-24T14:32:38.336Z,12.70
2018-01-24T14:35:39.761Z,12.70
2018-01-24T14:38:41.915Z,12.70
2018-01-24T14:41:43.381Z,12.60
2018-01-24T14:44:45.591Z,12.60
2018-01-24T14:47:46.954Z,12.40
2018-01-24T14:50:48.348Z,12.70
2018-01-24T14:53:50.539Z,12.80
2018-01-24T14:56:51.898Z,12.60
2018-01-24T14:59:53.275Z,12.70
2018-01-24T15:02:54.614Z,12.70
2018-01-24T15:05:56.026Z,12.70
2018-01-24T15:08:58.200Z,12.70
2018-01-24T15:12:00.300Z,12.70
2018-01-24T15:15:01.688Z,12.80
2018-01-24T15:18:03.087Z,12.70
2018-01-24T15:21:04.520Z,12.70
2018-01-24T15:24:05.832Z,12.40
2018-01-24T15:27:07.216Z,12.70
2018-01-24T15:30:09.333Z,12.70
2018-01-24T15:33:10.684Z,12.70
2018-01-24T15:36:12.220Z,12.70
2018-01-24T15:39:13.700Z,12.70
2018-01-24T15:42:15.141Z,12.60
2018-01-24T15:45:16.516Z,12.60
2018-01-24T15:48:17.989Z,12.60
2018-01-24T15:51:19.371Z,12.60
2018-01-24T15:54:27.736Z,12.70
2018-01-24T15:57:29.088Z,12.50
2018-01-24T16:00:30.527Z,12.50
2018-01-24T16:03:31.983Z,12.40
2018-01-24T16:06:33.445Z,12.50
2018-01-24T16:09:34.903Z,12.60
2018-01-24T16:12:36.361Z,12.50
2018-01-24T16:15:37.846Z,12.50
2018-01-24T16:18:40.044Z,12.50
2018-01-24T16:21:41.460Z,12.40
2018-01-24T16:24:42.898Z,12.50
2018-01-24T16:27:44.333Z,12.50
2018-01-24T16:30:45.728Z,12.50
2018-01-24T16:33:47.150Z,12.50
2018-01-24T16:36:48.660Z,12.50
2018-01-24T16:39:50.107Z,12.60
2018-01-24T16:42:51.507Z,12.50
2018-01-24T16:45:52.927Z,12.40
2018-01-24T16:48:54.353Z,12.40
2018-01-24T16:51:55.834Z,12.40
2018-01-24T16:54:58.137Z,12.50
2018-01-24T16:57:59.556Z,12.40
2018-01-24T17:01:00.950Z,12.40
2018-01-24T17:04:02.428Z,12.20
2018-01-24T17:07:04.592Z,12.40
2018-01-24T17:10:06.170Z,12.40
2018-01-24T17:13:08.320Z,12.40
2018-01-24T17:16:09.818Z,12.40
2018-01-24T17:19:11.255Z,12.30
2018-01-24T17:22:12.731Z,12.40
2018-01-24T17:25:14.145Z,12.40
2018-01-24T17:28:16.248Z,12.40
2018-01-24T17:31:17.600Z,12.40
2018-01-24T17:34:18.976Z,12.40
2018-01-24T17:37:20.348Z,12.30
2018-01-24T17:40:21.748Z,12.30
2018-01-24T17:43:23.067Z,12.30
2018-01-24T17:46:25.485Z,12.30
2018-01-24T17:49:27.004Z,12.30
2018-01-24T17:52:28.956Z,12.30
2018-01-24T17:55:30.368Z,12.40
2018-01-24T18:01:40.074Z,12.30
2018-01-24T18:04:42.266Z,12.30
2018-01-24T18:07:43.734Z,12.20
2018-01-24T18:10:45.177Z,12.40
2018-01-24T18:13:46.664Z,12.30
2018-01-24T18:16:48.127Z,12.30
2018-01-24T18:19:49.573Z,12.20
2018-01-24T18:22:51.085Z,12.20
2018-01-24T18:25:52.548Z,12.20
2018-01-24T18:28:54.078Z,12.20
2018-01-24T18:31:56.315Z,12.30
2018-01-24T18:34:57.828Z,12.30
2018-01-24T18:37:59.323Z,12.20
2018-01-24T18:41:00.811Z,12.20
2018-01-24T18:47:10.607Z,12.30
2018-01-24T18:50:12.114Z,12.20
2018-01-24T18:53:14.146Z,12.10
2018-01-24T18:56:16.240Z,12.30
2018-01-24T18:59:18.132Z,12.30
2018-01-24T19:02:20.676Z,12.30
2018-01-24T19:05:22.485Z,12.30
2018-01-24T19:08:25.382Z,12.20
2018-01-24T19:11:28.230Z,12.20
2018-01-24T19:14:30.842Z,12.20
2018-01-24T19:17:32.438Z,12.00
2018-01-24T19:20:35.087Z,12.00
2018-01-24T19:23:37.976Z,12.20
2018-01-24T19:26:40.394Z,12.20
2018-01-24T19:29:41.874Z,12.00
2018-01-24T19:32:43.628Z,12.20
2018-01-24T19:35:45.131Z,12.20
2018-01-24T19:38:46.836Z,12.10
2018-01-24T19:41:48.802Z,12.00
2018-01-24T19:44:51.185Z,12.10
2018-01-24T19:47:55.496Z,12.20
2018-01-24T19:50:56.968Z,12.20
2018-01-24T19:53:58.894Z,12.10
2018-01-24T19:57:00.948Z,12.20
2018-01-24T20:00:02.600Z,12.00
2018-01-24T20:03:04.020Z,12.00
2018-01-24T20:06:06.395Z,12.10
2018-01-24T20:09:08.047Z,12.10
2018-01-24T20:12:10.682Z,12.00
2018-01-24T20:15:12.111Z,11.80
2018-01-24T20:18:14.564Z,11.80
2018-01-24T20:21:17.254Z,12.00
2018-01-24T20:24:20.026Z,12.00
2018-01-24T20:27:23.962Z,12.10
2018-01-24T20:30:28.699Z,12.00
2018-01-24T20:33:30.134Z,12.00
2018-01-24T20:36:32.804Z,12.00
2018-01-24T20:39:35.206Z,12.00
2018-01-24T20:42:38.610Z,12.00
2018-01-24T20:45:41.615Z,12.00
2018-01-24T20:48:44.136Z,12.00
2018-01-24T20:51:46.869Z,12.10
2018-01-24T20:54:48.498Z,12.00
2018-01-24T20:57:50.584Z,12.00
2018-01-24T21:00:53.183Z,12.00
2018-01-24T21:03:54.762Z,12.00
2018-01-24T21:06:57.074Z,12.00
2018-01-24T21:09:58.754Z,12.00
2018-01-24T21:13:02.078Z,11.80
2018-01-24T21:16:03.598Z,12.10
2018-01-24T21:19:06.687Z,12.20
2018-01-24T21:22:08.646Z,12.10
2018-01-24T21:25:10.506Z,12.10
2018-01-24T21:28:15.586Z,12.00
2018-01-24T21:31:38.614Z,11.90
2018-01-24T21:34:58.955Z,11.80
2018-01-24T21:38:01.152Z,11.90
2018-01-24T21:41:02.633Z,11.90
2018-01-24T21:44:04.073Z,11.80
2018-01-24T21:47:05.568Z,11.90
2018-01-24T21:50:06.983Z,11.90
2018-01-24T21:53:08.396Z,11.60
2018-01-24T21:56:09.864Z,11.90
2018-01-24T21:59:12.011Z,11.90
2018-01-24T22:02:13.541Z,11.90
2018-01-24T22:05:15.013Z,11.90
2018-01-24T22:08:16.492Z,11.90
2018-01-24T22:11:18.004Z,11.90
2018-01-24T22:14:19.561Z,11.90
2018-01-24T22:17:21.001Z,11.60
2018-01-24T22:20:22.572Z,11.60
2018-01-24T22:23:24.193Z,11.80
2018-01-24T22:26:25.679Z,12.00
2018-01-24T22:29:27.187Z,12.10
2018-01-24T22:32:28.670Z,11.90
2018-01-24T22:35:30.160Z,11.90
2018-01-24T22:38:31.592Z,11.80
2018-01-24T22:41:33.137Z,11.90
2018-01-24T22:44:34.872Z,11.90
2018-01-24T22:47:36.356Z,11.70
2018-01-24T22:50:37.915Z,11.80
2018-01-24T22:53:39.430Z,12.00
2018-01-24T22:56:41.113Z,11.80
2018-01-24T22:59:42.573Z,11.90
2018-01-24T23:02:44.104Z,11.80
2018-01-24T23:05:45.591Z,11.70
2018-01-24T23:08:47.094Z,11.60
2018-01-24T23:11:48.765Z,11.60
2018-01-24T23:14:50.228Z,11.60
2018-01-24T23:17:51.740Z,11.50
2018-01-24T23:20:53.956Z,11.60
2018-01-24T23:23:55.497Z,11.50
2018-01-24T23:26:57.001Z,11.50
2018-01-24T23:29:59.361Z,11.50
2018-01-24T23:33:00.916Z,11.50
2018-01-24T23:36:03.153Z,11.60
2018-01-24T23:39:04.699Z,11.70
2018-01-24T23:42:06.190Z,11.50
2018-01-24T23:45:07.881Z,11.50
2018-01-24T23:48:10.110Z,11.60
2018-01-24T23:51:11.643Z,11.60
2018-01-24T23:54:13.197Z,11.50
2018-01-24T23:57:14.716Z,11.50
